Terminal Aerodrome Forecast
Issued by NWS

Home | Current Version | Previous Version | Text Only | Print | Product List | Glossary On
Versions: 1 2 3 4 5 6 7 8 9 10 11 12 13 14 15
000
FTUS44 KEPZ 290520
TAFDMN
TAF
KDMN 290520Z 2906/3006 26015G25KT P6SM VCSH SCT060 BKN080 BKN110
      TEMPO 2906/2909 -SHRA SCT050 BKN080 BKN110
     FM290900 31012G20KT P6SM SCT050 BKN070 BKN100
     FM291400 27018G28KT P6SM SCT050 BKN070 BKN100
     FM291800 30020G30KT P6SM VCSH BKN050 BKN070 BKN100
     FM292300 33020G30KT P6SM SCT050 BKN070 BKN100
     FM300300 02012G20KT P6SM FEW040 SCT070 BKN110=

USA.gov is the U.S. government's official web portal to all federal, state and local government web resources and services.